sensor_id;sensor_type;location;lat;lon;timestamp;pressure;altitude;pressure_sealevel;temperature;humidity
10718;BME280;13513;42.700;23.124;2023-04-19T00:00:32;92535.71;;;9.54;100.00
10718;BME280;13513;42.700;23.124;2023-04-19T00:03:02;92531.76;;;9.54;100.00
10718;BME280;13513;42.700;23.124;2023-04-19T00:05:33;92533.91;;;9.57;100.00
10718;BME280;13513;42.700;23.124;2023-04-19T00:08:04;92532.92;;;9.63;100.00
10718;BME280;13513;42.700;23.124;2023-04-19T00:10:35;92523.23;;;9.71;100.00
10718;BME280;13513;42.700;23.124;2023-04-19T00:13:06;92523.06;;;9.85;100.00
10718;BME280;13513;42.700;23.124;2023-04-19T00:15:38;92521.59;;;9.96;100.00
10718;BME280;13513;42.700;23.124;2023-04-19T00:18:08;92524.23;;;9.96;100.00
10718;BME280;13513;42.700;23.124;2023-04-19T00:20:39;92518.48;;;10.02;100.00
10718;BME280;13513;42.700;23.124;2023-04-19T00:23:10;92519.36;;;10.10;100.00
10718;BME280;13513;42.700;23.124;2023-04-19T00:25:41;92518.86;;;10.13;100.00
10718;BME280;13513;42.700;23.124;2023-04-19T00:28:12;92520.70;;;10.15;100.00
10718;BME280;13513;42.700;23.124;2023-04-19T00:30:43;92514.06;;;10.07;100.00
10718;BME280;13513;42.700;23.124;2023-04-19T00:33:15;92510.88;;;10.08;100.00
10718;BME280;13513;42.700;23.124;2023-04-19T00:35:45;92512.14;;;10.03;100.00
10718;BME280;13513;42.700;23.124;2023-04-19T00:38:16;92505.59;;;10.05;100.00
10718;BME280;13513;42.700;23.124;2023-04-19T00:40:47;92514.02;;;10.05;100.00
10718;BME280;13513;42.700;23.124;2023-04-19T00:43:18;92506.15;;;10.07;100.00
10718;BME280;13513;42.700;23.124;2023-04-19T00:45:52;92511.42;;;10.07;100.00
10718;BME280;13513;42.700;23.124;2023-04-19T00:48:22;92507.48;;;10.10;100.00
10718;BME280;13513;42.700;23.124;2023-04-19T00:50:52;92501.63;;;10.05;100.00
10718;BME280;13513;42.700;23.124;2023-04-19T00:53:23;92506.61;;;10.04;100.00
10718;BME280;13513;42.700;23.124;2023-04-19T00:55:54;92506.35;;;10.03;100.00
10718;BME280;13513;42.700;23.124;2023-04-19T00:58:26;92508.92;;;9.96;100.00
10718;BME280;13513;42.700;23.124;2023-04-19T01:00:57;92506.94;;;9.79;100.00
10718;BME280;13513;42.700;23.124;2023-04-19T01:03:28;92503.46;;;9.73;100.00
10718;BME280;13513;42.700;23.124;2023-04-19T01:05:58;92496.36;;;9.74;100.00
10718;BME280;13513;42.700;23.124;2023-04-19T01:08:29;92500.16;;;9.56;100.00
10718;BME280;13513;42.700;23.124;2023-04-19T01:11:00;92501.13;;;9.48;100.00
10718;BME280;13513;42.700;23.124;2023-04-19T01:13:30;92499.14;;;9.62;100.00
10718;BME280;13513;42.700;23.124;2023-04-19T01:16:02;92491.55;;;9.66;100.00
10718;BME280;13513;42.700;23.124;2023-04-19T01:18:32;92500.08;;;9.78;100.00
10718;BME280;13513;42.700;23.124;2023-04-19T01:21:04;92492.43;;;9.79;100.00
10718;BME280;13513;42.700;23.124;2023-04-19T01:23:36;92493.75;;;9.79;100.00
10718;BME280;13513;42.700;23.124;2023-04-19T01:26:10;92496.17;;;9.85;100.00
10718;BME280;13513;42.700;23.124;2023-04-19T01:28:41;92492.00;;;9.92;100.00
10718;BME280;13513;42.700;23.124;2023-04-19T01:31:11;92492.56;;;9.96;100.00
10718;BME280;13513;42.700;23.124;2023-04-19T01:33:42;92492.30;;;9.95;100.00
10718;BME280;13513;42.700;23.124;2023-04-19T01:36:13;92492.89;;;10.02;100.00
10718;BME280;13513;42.700;23.124;2023-04-19T01:38:44;92491.39;;;10.11;100.00
10718;BME280;13513;42.700;23.124;2023-04-19T01:41:18;92495.88;;;10.13;100.00
10718;BME280;13513;42.700;23.124;2023-04-19T01:43:49;92486.69;;;10.16;100.00
10718;BME280;13513;42.700;23.124;2023-04-19T01:46:20;92488.80;;;10.21;100.00
10718;BME280;13513;42.700;23.124;2023-04-19T01:48:51;92486.98;;;10.24;100.00
10718;BME280;13513;42.700;23.124;2023-04-19T01:51:22;92489.20;;;10.03;100.00
10718;BME280;13513;42.700;23.124;2023-04-19T01:53:52;92478.05;;;9.94;100.00
10718;BME280;13513;42.700;23.124;2023-04-19T01:56:23;92476.95;;;9.90;100.00
10718;BME280;13513;42.700;23.124;2023-04-19T01:58:54;92480.47;;;9.69;100.00
10718;BME280;13513;42.700;23.124;2023-04-19T02:01:26;92477.95;;;9.84;100.00
10718;BME280;13513;42.700;23.124;2023-04-19T02:03:56;92478.02;;;9.89;100.00
10718;BME280;13513;42.700;23.124;2023-04-19T02:06:27;92480.53;;;9.74;100.00
10718;BME280;13513;42.700;23.124;2023-04-19T02:08:59;92477.69;;;9.83;100.00
10718;BME280;13513;42.700;23.124;2023-04-19T02:11:31;92476.59;;;9.76;100.00
10718;BME280;13513;42.700;23.124;2023-04-19T02:14:02;92481.38;;;9.53;100.00
10718;BME280;13513;42.700;23.124;2023-04-19T02:16:33;92475.86;;;9.54;100.00
10718;BME280;13513;42.700;23.124;2023-04-19T02:19:04;92477.19;;;9.54;100.00
10718;BME280;13513;42.700;23.124;2023-04-19T02:21:34;92472.75;;;9.60;100.00
10718;BME280;13513;42.700;23.124;2023-04-19T02:24:06;92473.36;;;9.69;100.00
10718;BME280;13513;42.700;23.124;2023-04-19T02:26:37;92477.17;;;9.83;100.00
10718;BME280;13513;42.700;23.124;2023-04-19T02:29:08;92470.59;;;9.86;100.00
10718;BME280;13513;42.700;23.124;2023-04-19T02:31:38;92469.03;;;9.87;100.00
10718;BME280;13513;42.700;23.124;2023-04-19T02:34:08;92463.19;;;9.85;100.00
10718;BME280;13513;42.700;23.124;2023-04-19T02:36:39;92472.36;;;9.75;100.00
10718;BME280;13513;42.700;23.124;2023-04-19T02:39:10;92466.31;;;9.80;100.00
10718;BME280;13513;42.700;23.124;2023-04-19T02:41:41;92475.78;;;9.76;100.00
10718;BME280;13513;42.700;23.124;2023-04-19T02:44:12;92469.90;;;9.66;100.00
10718;BME280;13513;42.700;23.124;2023-04-19T02:46:49;92473.09;;;9.68;100.00
10718;BME280;13513;42.700;23.124;2023-04-19T02:49:19;92471.31;;;9.76;100.00
10718;BME280;13513;42.700;23.124;2023-04-19T02:51:51;92473.45;;;9.79;100.00
10718;BME280;13513;42.700;23.124;2023-04-19T02:54:21;92474.27;;;9.85;100.00
10718;BME280;13513;42.700;23.124;2023-04-19T02:56:52;92471.59;;;9.80;100.00
10718;BME280;13513;42.700;23.124;2023-04-19T02:59:23;92466.98;;;9.63;100.00
10718;BME280;13513;42.700;23.124;2023-04-19T03:01:55;92467.62;;;9.48;100.00
10718;BME280;13513;42.700;23.124;2023-04-19T03:04:25;92469.02;;;9.56;100.00
10718;BME280;13513;42.700;23.124;2023-04-19T03:06:56;92470.06;;;9.52;100.00
10718;BME280;13513;42.700;23.124;2023-04-19T03:09:27;92470.94;;;9.63;100.00
10718;BME280;13513;42.700;23.124;2023-04-19T03:11:57;92471.94;;;9.59;100.00
10718;BME280;13513;42.700;23.124;2023-04-19T03:14:29;92472.56;;;9.71;100.00
10718;BME280;13513;42.700;23.124;2023-04-19T03:17:01;92473.14;;;9.76;100.00
10718;BME280;13513;42.700;23.124;2023-04-19T03:19:31;92475.30;;;9.81;100.00
10718;BME280;13513;42.700;23.124;2023-04-19T03:22:02;92472.14;;;9.79;100.00
10718;BME280;13513;42.700;23.124;2023-04-19T03:24:33;92474.23;;;9.80;100.00
10718;BME280;13513;42.700;23.124;2023-04-19T03:27:04;92473.48;;;9.84;100.00
10718;BME280;13513;42.700;23.124;2023-04-19T03:29:34;92468.72;;;9.84;100.00
10718;BME280;13513;42.700;23.124;2023-04-19T03:32:05;92473.48;;;9.84;100.00
10718;BME280;13513;42.700;23.124;2023-04-19T03:34:36;92470.59;;;9.86;100.00
10718;BME280;13513;42.700;23.124;2023-04-19T03:37:07;92472.16;;;9.84;100.00
10718;BME280;13513;42.700;23.124;2023-04-19T03:39:37;92470.52;;;9.78;100.00
10718;BME280;13513;42.700;23.124;2023-04-19T03:42:10;92472.88;;;9.75;100.00
10718;BME280;13513;42.700;23.124;2023-04-19T03:44:40;92475.75;;;9.71;100.00
10718;BME280;13513;42.700;23.124;2023-04-19T03:47:11;92474.95;;;9.73;100.00
10718;BME280;13513;42.700;23.124;2023-04-19T03:49:42;92471.53;;;9.70;100.00
10718;BME280;13513;42.700;23.124;2023-04-19T03:52:12;92465.33;;;9.57;100.00
10718;BME280;13513;42.700;23.124;2023-04-19T03:54:43;92468.30;;;9.36;100.00
10718;BME280;13513;42.700;23.124;2023-04-19T03:57:15;92467.17;;;9.27;100.00
10718;BME280;13513;42.700;23.124;2023-04-19T03:59:45;92469.11;;;9.37;100.00
10718;BME280;13513;42.700;23.124;2023-04-19T04:02:16;92462.03;;;9.40;100.00
10718;BME280;13513;42.700;23.124;2023-04-19T04:04:52;92467.36;;;9.47;100.00
10718;BME280;13513;42.700;23.124;2023-04-19T04:07:19;92476.97;;;9.61;100.00
10718;BME280;13513;42.700;23.124;2023-04-19T04:09:51;92472.01;;;9.64;100.00
10718;BME280;13513;42.700;23.124;2023-04-19T04:12:24;92470.72;;;9.69;100.00
10718;BME280;13513;42.700;23.124;2023-04-19T04:14:57;92470.30;;;9.85;100.00
10718;BME280;13513;42.700;23.124;2023-04-19T04:17:28;92474.34;;;9.95;100.00
10718;BME280;13513;42.700;23.124;2023-04-19T04:19:59;92477.36;;;10.06;100.00
10718;BME280;13513;42.700;23.124;2023-04-19T04:22:30;92478.77;;;10.16;100.00
10718;BME280;13513;42.700;23.124;2023-04-19T04:25:01;92483.75;;;10.15;100.00
10718;BME280;13513;42.700;23.124;2023-04-19T04:27:33;92474.27;;;10.19;100.00
10718;BME280;13513;42.700;23.124;2023-04-19T04:30:04;92483.56;;;10.24;100.00
10718;BME280;13513;42.700;23.124;2023-04-19T04:32:40;92482.02;;;10.30;100.00
10718;BME280;13513;42.700;23.124;2023-04-19T04:35:08;92481.86;;;10.47;100.00
10718;BME280;13513;42.700;23.124;2023-04-19T04:37:39;92480.30;;;10.53;100.00
10718;BME280;13513;42.700;23.124;2023-04-19T04:40:12;92477.07;;;10.41;100.00
10718;BME280;13513;42.700;23.124;2023-04-19T04:42:44;92478.41;;;10.46;100.00
10718;BME280;13513;42.700;23.124;2023-04-19T04:45:15;92477.67;;;10.56;100.00
10718;BME280;13513;42.700;23.124;2023-04-19T04:47:46;92473.45;;;10.57;100.00
10718;BME280;13513;42.700;23.124;2023-04-19T04:50:17;92476.75;;;10.84;100.00
10718;BME280;13513;42.700;23.124;2023-04-19T04:52:48;92479.72;;;11.08;100.00
10718;BME280;13513;42.700;23.124;2023-04-19T04:55:18;92481.64;;;11.30;100.00
10718;BME280;13513;42.700;23.124;2023-04-19T04:57:49;92478.00;;;11.51;100.00
10718;BME280;13513;42.700;23.124;2023-04-19T05:00:20;92476.19;;;11.61;100.00
10718;BME280;13513;42.700;23.124;2023-04-19T05:02:52;92476.94;;;11.52;100.00
10718;BME280;13513;42.700;23.124;2023-04-19T05:05:22;92483.52;;;11.37;100.00
10718;BME280;13513;42.700;23.124;2023-04-19T05:07:53;92490.84;;;11.10;100.00
10718;BME280;13513;42.700;23.124;2023-04-19T05:10:24;92493.48;;;11.05;100.00
10718;BME280;13513;42.700;23.124;2023-04-19T05:12:55;92497.66;;;10.93;100.00
10718;BME280;13513;42.700;23.124;2023-04-19T05:15:25;92493.63;;;10.78;100.00
10718;BME280;13513;42.700;23.124;2023-04-19T05:17:55;92490.73;;;10.85;100.00
10718;BME280;13513;42.700;23.124;2023-04-19T05:20:27;92496.58;;;10.92;100.00
10718;BME280;13513;42.700;23.124;2023-04-19T05:22:58;92494.77;;;11.00;100.00
10718;BME280;13513;42.700;23.124;2023-04-19T05:25:30;92489.73;;;10.98;100.00
10718;BME280;13513;42.700;23.124;2023-04-19T05:28:01;92496.62;;;10.97;100.00
10718;BME280;13513;42.700;23.124;2023-04-19T05:30:31;92498.28;;;11.20;100.00
10718;BME280;13513;42.700;23.124;2023-04-19T05:33:03;92502.33;;;11.43;100.00
10718;BME280;13513;42.700;23.124;2023-04-19T05:35:33;92497.90;;;11.71;100.00
10718;BME280;13513;42.700;23.124;2023-04-19T05:38:04;92496.05;;;11.81;100.00
10718;BME280;13513;42.700;23.124;2023-04-19T05:40:34;92496.33;;;12.05;100.00
10718;BME280;13513;42.700;23.124;2023-04-19T05:43:06;92492.87;;;12.24;100.00
10718;BME280;13513;42.700;23.124;2023-04-19T05:45:37;92499.22;;;12.39;100.00
10718;BME280;13513;42.700;23.124;2023-04-19T05:48:08;92503.95;;;12.54;100.00
10718;BME280;13513;42.700;23.124;2023-04-19T05:50:40;92499.45;;;12.65;100.00
10718;BME280;13513;42.700;23.124;2023-04-19T05:53:10;92498.58;;;12.84;100.00
10718;BME280;13513;42.700;23.124;2023-04-19T05:55:41;92501.52;;;12.78;100.00
10718;BME280;13513;42.700;23.124;2023-04-19T05:58:12;92504.91;;;12.93;99.84
10718;BME280;13513;42.700;23.124;2023-04-19T06:00:43;92500.94;;;13.03;98.40
10718;BME280;13513;42.700;23.124;2023-04-19T06:03:14;92496.72;;;13.00;97.13
10718;BME280;13513;42.700;23.124;2023-04-19T06:05:45;92504.14;;;12.90;98.52
10718;BME280;13513;42.700;23.124;2023-04-19T06:08:16;92504.20;;;12.70;98.61
10718;BME280;13513;42.700;23.124;2023-04-19T06:10:46;92502.89;;;12.60;99.34
10718;BME280;13513;42.700;23.124;2023-04-19T06:13:17;92502.36;;;12.56;99.57
10718;BME280;13513;42.700;23.124;2023-04-19T06:15:49;92507.68;;;12.51;99.72
10718;BME280;13513;42.700;23.124;2023-04-19T06:18:20;92506.12;;;12.32;98.71
10718;BME280;13513;42.700;23.124;2023-04-19T06:20:53;92506.13;;;12.19;98.78
10718;BME280;13513;42.700;23.124;2023-04-19T06:23:27;92509.83;;;12.21;98.17
10718;BME280;13513;42.700;23.124;2023-04-19T06:25:57;92502.94;;;12.15;98.70
10718;BME280;13513;42.700;23.124;2023-04-19T06:28:28;92510.37;;;11.93;100.00
10718;BME280;13513;42.700;23.124;2023-04-19T06:30:59;92510.11;;;11.97;100.00
10718;BME280;13513;42.700;23.124;2023-04-19T06:33:30;92511.68;;;12.03;99.09
10718;BME280;13513;42.700;23.124;2023-04-19T06:36:01;92517.25;;;12.09;97.76
10718;BME280;13513;42.700;23.124;2023-04-19T06:38:32;92518.84;;;12.10;98.44
10718;BME280;13513;42.700;23.124;2023-04-19T06:41:03;92522.00;;;12.07;99.74
10718;BME280;13513;42.700;23.124;2023-04-19T06:43:34;92520.42;;;12.08;100.00
10718;BME280;13513;42.700;23.124;2023-04-19T06:46:05;92521.21;;;11.99;100.00
10718;BME280;13513;42.700;23.124;2023-04-19T06:48:36;92519.89;;;11.99;99.87
10718;BME280;13513;42.700;23.124;2023-04-19T06:51:08;92524.63;;;11.77;100.00
10718;BME280;13513;42.700;23.124;2023-04-19T06:53:41;92526.98;;;11.61;100.00
10718;BME280;13513;42.700;23.124;2023-04-19T06:56:12;92530.25;;;11.14;100.00
10718;BME280;13513;42.700;23.124;2023-04-19T06:58:43;92528.69;;;11.23;100.00
10718;BME280;13513;42.700;23.124;2023-04-19T07:01:14;92527.62;;;11.21;100.00
10718;BME280;13513;42.700;23.124;2023-04-19T07:03:46;92531.63;;;11.26;100.00
10718;BME280;13513;42.700;23.124;2023-04-19T07:06:16;92533.77;;;11.34;100.00
10718;BME280;13513;42.700;23.124;2023-04-19T07:08:47;92531.94;;;11.37;100.00
10718;BME280;13513;42.700;23.124;2023-04-19T07:11:20;92534.62;;;11.55;100.00
10718;BME280;13513;42.700;23.124;2023-04-19T07:13:51;92533.30;;;11.55;100.00
10718;BME280;13513;42.700;23.124;2023-04-19T07:16:23;92536.27;;;11.68;100.00
10718;BME280;13513;42.700;23.124;2023-04-19T07:18:53;92538.11;;;11.63;100.00
10718;BME280;13513;42.700;23.124;2023-04-19T07:21:24;92536.53;;;11.69;100.00
10718;BME280;13513;42.700;23.124;2023-04-19T07:23:55;92532.30;;;11.81;100.00
10718;BME280;13513;42.700;23.124;2023-04-19T07:26:26;92530.48;;;11.94;100.00
10718;BME280;13513;42.700;23.124;2023-04-19T07:28:57;92534.45;;;11.91;100.00
10718;BME280;13513;42.700;23.124;2023-04-19T07:31:28;92540.28;;;12.11;100.00
10718;BME280;13513;42.700;23.124;2023-04-19T07:33:58;92537.12;;;12.06;98.75
10718;BME280;13513;42.700;23.124;2023-04-19T07:36:29;92541.59;;;11.88;100.00
10718;BME280;13513;42.700;23.124;2023-04-19T07:39:00;92538.44;;;12.06;98.69
10718;BME280;13513;42.700;23.124;2023-04-19T07:41:32;92538.95;;;12.08;96.35
10718;BME280;13513;42.700;23.124;2023-04-19T07:44:02;92538.70;;;12.10;97.96
10718;BME280;13513;42.700;23.124;2023-04-19T07:46:33;92536.58;;;12.22;99.22
10718;BME280;13513;42.700;23.124;2023-04-19T07:49:04;92539.48;;;12.51;97.10
10718;BME280;13513;42.700;23.124;2023-04-19T07:51:35;92536.02;;;12.60;97.93
10718;BME280;13513;42.700;23.124;2023-04-19T07:54:06;92539.20;;;12.67;98.12
10718;BME280;13513;42.700;23.124;2023-04-19T07:56:36;92539.68;;;12.84;95.85
10718;BME280;13513;42.700;23.124;2023-04-19T07:59:08;92542.05;;;12.91;95.50
10718;BME280;13513;42.700;23.124;2023-04-19T08:01:38;92542.03;;;12.93;95.14
10718;BME280;13513;42.700;23.124;2023-04-19T08:04:09;92545.48;;;12.94;93.72
10718;BME280;13513;42.700;23.124;2023-04-19T08:06:40;92544.42;;;12.95;92.76
10718;BME280;13513;42.700;23.124;2023-04-19T08:09:11;92542.31;;;12.89;93.93
10718;BME280;13513;42.700;23.124;2023-04-19T08:11:41;92545.24;;;12.98;93.43
10718;BME280;13513;42.700;23.124;2023-04-19T08:14:13;92540.72;;;12.91;93.61
10718;BME280;13513;42.700;23.124;2023-04-19T08:16:43;92541.52;;;12.91;95.41
10718;BME280;13513;42.700;23.124;2023-04-19T08:19:14;92544.66;;;13.18;92.59
10718;BME280;13513;42.700;23.124;2023-04-19T08:21:44;92545.45;;;13.14;92.21
10718;BME280;13513;42.700;23.124;2023-04-19T08:24:15;92541.75;;;13.17;93.09
10718;BME280;13513;42.700;23.124;2023-04-19T08:26:47;92536.88;;;13.37;92.18
10718;BME280;13513;42.700;23.124;2023-04-19T08:29:18;92543.41;;;13.57;89.51
10718;BME280;13513;42.700;23.124;2023-04-19T08:31:50;92535.68;;;13.65;86.71
10718;BME280;13513;42.700;23.124;2023-04-19T08:34:21;92538.23;;;13.83;87.64
10718;BME280;13513;42.700;23.124;2023-04-19T08:36:52;92535.03;;;13.86;87.47
10718;BME280;13513;42.700;23.124;2023-04-19T08:39:24;92534.27;;;13.80;86.98
10718;BME280;13513;42.700;23.124;2023-04-19T08:41:55;92532.18;;;14.16;87.65
10718;BME280;13513;42.700;23.124;2023-04-19T08:44:26;92527.70;;;14.45;82.84
10718;BME280;13513;42.700;23.124;2023-04-19T08:46:59;92528.86;;;14.67;81.16
10718;BME280;13513;42.700;23.124;2023-04-19T08:49:30;92522.89;;;14.49;81.73
10718;BME280;13513;42.700;23.124;2023-04-19T08:52:01;92527.83;;;14.63;80.54
10718;BME280;13513;42.700;23.124;2023-04-19T08:54:33;92522.03;;;14.85;77.29
10718;BME280;13513;42.700;23.124;2023-04-19T08:57:05;92535.44;;;15.01;75.00
10718;BME280;13513;42.700;23.124;2023-04-19T08:59:35;92530.38;;;15.25;76.25
10718;BME280;13513;42.700;23.124;2023-04-19T09:02:05;92527.19;;;15.49;73.38
10718;BME280;13513;42.700;23.124;2023-04-19T09:04:36;92525.14;;;15.83;70.31
10718;BME280;13513;42.700;23.124;2023-04-19T09:07:07;92522.45;;;16.39;66.99
10718;BME280;13513;42.700;23.124;2023-04-19T09:09:38;92517.36;;;16.88;64.43
10718;BME280;13513;42.700;23.124;2023-04-19T09:12:18;92521.47;;;16.83;60.99
10718;BME280;13513;42.700;23.124;2023-04-19T09:14:49;92526.14;;;16.75;64.68
10718;BME280;13513;42.700;23.124;2023-04-19T09:17:20;92517.11;;;16.23;66.45
10718;BME280;13513;42.700;23.124;2023-04-19T09:19:51;92528.66;;;15.97;68.67
10718;BME280;13513;42.700;23.124;2023-04-19T09:22:22;92523.31;;;16.00;68.08
10718;BME280;13513;42.700;23.124;2023-04-19T09:24:53;92520.54;;;15.89;67.29
10718;BME280;13513;42.700;23.124;2023-04-19T09:27:29;92519.73;;;15.88;66.11
10718;BME280;13513;42.700;23.124;2023-04-19T09:30:03;92518.28;;;15.77;68.88
10718;BME280;13513;42.700;23.124;2023-04-19T09:32:47;92514.89;;;15.93;72.80
10718;BME280;13513;42.700;23.124;2023-04-19T09:35:18;92519.00;;;16.04;70.21
10718;BME280;13513;42.700;23.124;2023-04-19T09:38:00;92509.52;;;15.95;65.49
10718;BME280;13513;42.700;23.124;2023-04-19T09:40:30;92517.97;;;15.81;66.27
10718;BME280;13513;42.700;23.124;2023-04-19T09:43:01;92514.41;;;15.88;68.62
10718;BME280;13513;42.700;23.124;2023-04-19T09:45:44;92509.44;;;16.19;64.83
10718;BME280;13513;42.700;23.124;2023-04-19T09:48:16;92513.72;;;16.68;64.98
10718;BME280;13513;42.700;23.124;2023-04-19T09:50:54;92504.65;;;17.42;59.09
10718;BME280;13513;42.700;23.124;2023-04-19T09:53:24;92510.38;;;17.62;53.37
10718;BME280;13513;42.700;23.124;2023-04-19T09:55:55;92509.23;;;17.52;55.92
10718;BME280;13513;42.700;23.124;2023-04-19T09:58:26;92508.14;;;17.53;55.43
10718;BME280;13513;42.700;23.124;2023-04-19T10:00:58;92500.91;;;17.40;55.31
10718;BME280;13513;42.700;23.124;2023-04-19T10:03:30;92500.13;;;17.53;55.43
10718;BME280;13513;42.700;23.124;2023-04-19T10:06:01;92494.11;;;18.32;53.17
10718;BME280;13513;42.700;23.124;2023-04-19T10:08:32;92490.52;;;18.26;48.78
10718;BME280;13513;42.700;23.124;2023-04-19T10:11:04;92492.03;;;17.58;49.97
10718;BME280;13513;42.700;23.124;2023-04-19T10:13:36;92496.20;;;17.35;51.07
10718;BME280;13513;42.700;23.124;2023-04-19T10:16:08;92493.91;;;16.88;54.05
10718;BME280;13513;42.700;23.124;2023-04-19T10:18:39;92489.56;;;16.62;53.79
10718;BME280;13513;42.700;23.124;2023-04-19T10:21:11;92488.23;;;16.92;55.61
10718;BME280;13513;42.700;23.124;2023-04-19T10:23:42;92489.59;;;17.19;52.22
10718;BME280;13513;42.700;23.124;2023-04-19T10:26:13;92489.69;;;16.84;52.39
10718;BME280;13513;42.700;23.124;2023-04-19T10:28:44;92487.97;;;16.11;58.56
10718;BME280;13513;42.700;23.124;2023-04-19T10:31:17;92481.10;;;15.88;60.95
10718;BME280;13513;42.700;23.124;2023-04-19T10:33:48;92471.70;;;15.75;62.04
10718;BME280;13513;42.700;23.124;2023-04-19T10:36:22;92484.49;;;15.33;61.90
10718;BME280;13513;42.700;23.124;2023-04-19T10:38:53;92480.91;;;15.45;65.58
10718;BME280;13513;42.700;23.124;2023-04-19T10:41:24;92463.47;;;15.74;63.31
10718;BME280;13513;42.700;23.124;2023-04-19T10:49:06;92463.08;;;16.18;61.12
10718;BME280;13513;42.700;23.124;2023-04-19T10:51:37;92453.45;;;16.67;63.59
10718;BME280;13513;42.700;23.124;2023-04-19T10:54:33;92455.61;;;16.33;60.41
10718;BME280;13513;42.700;23.124;2023-04-19T10:57:07;92453.72;;;16.52;61.92
10718;BME280;13513;42.700;23.124;2023-04-19T10:59:38;92453.14;;;16.98;62.08
10718;BME280;13513;42.700;23.124;2023-04-19T11:02:26;92444.83;;;17.27;60.31
10718;BME280;13513;42.700;23.124;2023-04-19T11:05:01;92443.34;;;17.21;58.34
10718;BME280;13513;42.700;23.124;2023-04-19T11:07:36;92450.06;;;17.18;54.07
10718;BME280;13513;42.700;23.124;2023-04-19T11:10:08;92452.39;;;17.09;56.46
10718;BME280;13513;42.700;23.124;2023-04-19T11:12:40;92446.50;;;17.36;58.61
10718;BME280;13513;42.700;23.124;2023-04-19T11:15:09;92441.35;;;17.53;58.29
10718;BME280;13513;42.700;23.124;2023-04-19T11:17:40;92443.66;;;17.46;57.61
10718;BME280;13513;42.700;23.124;2023-04-19T11:20:11;92442.70;;;17.13;57.65
10718;BME280;13513;42.700;23.124;2023-04-19T11:22:45;92437.64;;;17.25;58.16
10718;BME280;13513;42.700;23.124;2023-04-19T11:25:20;92436.62;;;17.37;56.95
10718;BME280;13513;42.700;23.124;2023-04-19T11:27:53;92441.95;;;17.64;52.51
10718;BME280;13513;42.700;23.124;2023-04-19T11:30:30;92440.84;;;17.89;54.86
10718;BME280;13513;42.700;23.124;2023-04-19T11:33:02;92437.09;;;18.12;55.40
10718;BME280;13513;42.700;23.124;2023-04-19T11:35:33;92438.88;;;17.92;53.38
10718;BME280;13513;42.700;23.124;2023-04-19T11:38:03;92441.91;;;18.35;54.81
10718;BME280;13513;42.700;23.124;2023-04-19T11:40:35;92442.88;;;18.50;54.34
10718;BME280;13513;42.700;23.124;2023-04-19T11:43:05;92444.65;;;18.54;49.48
10718;BME280;13513;42.700;23.124;2023-04-19T11:45:37;92444.95;;;18.53;48.69
10718;BME280;13513;42.700;23.124;2023-04-19T11:48:14;92439.24;;;18.76;50.14
10718;BME280;13513;42.700;23.124;2023-04-19T11:50:45;92431.64;;;18.81;53.67
10718;BME280;13513;42.700;23.124;2023-04-19T11:53:20;92436.52;;;18.98;53.00
10718;BME280;13513;42.700;23.124;2023-04-19T11:55:53;92435.11;;;19.01;51.79
10718;BME280;13513;42.700;23.124;2023-04-19T11:58:31;92435.42;;;19.19;53.70
10718;BME280;13513;42.700;23.124;2023-04-19T12:01:08;92436.58;;;19.63;49.63
10718;BME280;13513;42.700;23.124;2023-04-19T12:03:38;92425.73;;;19.85;47.59
10718;BME280;13513;42.700;23.124;2023-04-19T12:06:05;92427.36;;;20.20;45.52
10718;BME280;13513;42.700;23.124;2023-04-19T12:08:38;92418.00;;;19.84;47.35
10718;BME280;13513;42.700;23.124;2023-04-19T12:11:09;92430.12;;;19.55;47.11
10718;BME280;13513;42.700;23.124;2023-04-19T12:13:40;92429.02;;;18.98;47.58
10718;BME280;13513;42.700;23.124;2023-04-19T12:16:11;92427.77;;;18.76;50.02
10718;BME280;13513;42.700;23.124;2023-04-19T12:18:50;92431.93;;;18.60;47.10
10718;BME280;13513;42.700;23.124;2023-04-19T12:21:28;92434.35;;;18.15;47.77
10718;BME280;13513;42.700;23.124;2023-04-19T12:24:00;92428.05;;;17.75;49.88
10718;BME280;13513;42.700;23.124;2023-04-19T12:26:30;92435.00;;;17.63;51.32
10718;BME280;13513;42.700;23.124;2023-04-19T12:29:02;92423.80;;;17.74;51.46
10718;BME280;13513;42.700;23.124;2023-04-19T12:31:33;92431.53;;;17.24;52.30
10718;BME280;13513;42.700;23.124;2023-04-19T12:34:04;92427.03;;;16.95;52.00
10718;BME280;13513;42.700;23.124;2023-04-19T12:36:36;92423.95;;;17.15;51.96
10718;BME280;13513;42.700;23.124;2023-04-19T12:39:07;92413.80;;;17.04;51.12
10718;BME280;13513;42.700;23.124;2023-04-19T12:41:38;92410.52;;;17.20;55.28
10718;BME280;13513;42.700;23.124;2023-04-19T12:44:08;92412.02;;;17.75;53.25
10718;BME280;13513;42.700;23.124;2023-04-19T12:46:39;92416.59;;;17.97;49.03
10718;BME280;13513;42.700;23.124;2023-04-19T12:49:09;92413.45;;;18.39;49.21
10718;BME280;13513;42.700;23.124;2023-04-19T12:51:39;92415.27;;;18.30;49.18
10718;BME280;13513;42.700;23.124;2023-04-19T12:54:10;92416.47;;;17.80;48.29
10718;BME280;13513;42.700;23.124;2023-04-19T12:56:41;92415.34;;;17.32;49.91
10718;BME280;13513;42.700;23.124;2023-04-19T12:59:12;92411.70;;;17.14;53.46
10718;BME280;13513;42.700;23.124;2023-04-19T13:01:43;92409.95;;;17.48;52.88
10718;BME280;13513;42.700;23.124;2023-04-19T13:04:14;92409.06;;;17.88;50.61
10718;BME280;13513;42.700;23.124;2023-04-19T13:06:44;92403.36;;;18.03;50.38
10718;BME280;13513;42.700;23.124;2023-04-19T13:09:16;92410.68;;;17.75;49.02
10718;BME280;13513;42.700;23.124;2023-04-19T13:11:47;92407.41;;;18.11;50.33
10718;BME280;13513;42.700;23.124;2023-04-19T13:14:18;92411.28;;;18.71;49.56